Time;durP1;ratioP1;P1;durP2;ratioP2;P2;SDS_P1;SDS_P2;PMS_P1;PMS_P2;Temp;Humidity;BMP_temperature;BMP_pressure;BME280_temperature;BME280_humidity;BME280_pressure;Samples;Min_cycle;Max_cycle;Signal;HPM_P1;HPM_P2
2023/12/01 00:01:38;;;;;;;30.58;20.92;;;2.20;99.90;;;;;;7380810;19;20010;-70
2023/12/01 00:04:11;;;;;;;32.15;21.83;;;2.30;99.90;;;;;;7381075;19;20010;-71
2023/12/01 00:06:41;;;;;;;29.95;20.77;;;2.30;99.90;;;;;;7381317;19;20021;-70
2023/12/01 00:09:11;;;;;;;29.33;22.08;;;2.20;99.90;;;;;;7381993;19;20014;-70
2023/12/01 00:11:41;;;;;;;28.08;20.17;;;2.30;99.90;;;;;;7383284;19;20014;-71
2023/12/01 00:14:11;;;;;;;29.40;20.20;;;2.20;99.90;;;;;;7381098;19;20030;-70
2023/12/01 00:16:41;;;;;;;28.30;21.27;;;2.30;99.90;;;;;;7381395;19;20078;-70
2023/12/01 00:19:14;;;;;;;31.27;21.65;;;2.30;99.90;;;;;;7381008;19;20014;-70
2023/12/01 00:21:44;;;;;;;28.95;20.45;;;2.30;99.90;;;;;;7381930;19;20036;-71
2023/12/01 00:24:14;;;;;;;26.50;19.27;;;2.20;99.90;;;;;;7379683;19;20024;-70
2023/12/01 00:26:45;;;;;;;30.08;21.52;;;2.20;99.90;;;;;;7381345;19;20015;-70
2023/12/01 00:29:15;;;;;;;31.27;20.55;;;2.30;99.90;;;;;;7379888;19;20019;-70
2023/12/01 00:31:45;;;;;;;32.42;20.77;;;2.30;99.90;;;;;;7382147;19;20043;-71
2023/12/01 00:34:18;;;;;;;28.40;20.52;;;2.30;99.90;;;;;;7380351;19;20047;-70
2023/12/01 00:36:48;;;;;;;26.83;19.63;;;2.20;99.90;;;;;;7381058;19;20053;-70
2023/12/01 00:39:18;;;;;;;29.80;20.98;;;2.20;99.90;;;;;;7380337;19;20031;-71
2023/12/01 00:41:48;;;;;;;28.17;21.13;;;2.30;99.90;;;;;;7381780;19;20010;-71
2023/12/01 00:44:18;;;;;;;30.42;21.42;;;2.30;99.90;;;;;;7381139;19;20399;-70
2023/12/01 00:46:48;;;;;;;27.27;21.05;;;2.20;99.90;;;;;;7382506;19;20010;-71
2023/12/01 00:49:21;;;;;;;27.23;20.63;;;2.30;99.90;;;;;;7379322;19;20039;-71
2023/12/01 00:51:51;;;;;;;31.80;20.70;;;2.30;99.90;;;;;;7381936;19;20089;-68
2023/12/01 00:54:23;;;;;;;32.80;20.98;;;2.30;99.90;;;;;;7376643;19;20014;-71
2023/12/01 00:56:53;;;;;;;30.75;21.00;;;2.30;99.90;;;;;;7381347;19;20023;-70
2023/12/01 00:59:24;;;;;;;27.73;21.27;;;2.30;99.90;;;;;;7381329;19;20011;-71
2023/12/01 01:01:54;;;;;;;31.90;21.45;;;2.30;99.90;;;;;;7380209;19;20073;-71
2023/12/01 01:04:26;;;;;;;32.58;23.13;;;2.30;99.90;;;;;;7380445;19;20003;-70
2023/12/01 01:06:56;;;;;;;33.15;22.27;;;2.30;99.90;;;;;;7372308;19;20045;-70
2023/12/01 01:09:27;;;;;;;30.70;22.15;;;2.40;99.90;;;;;;7378427;19;20083;-71
2023/12/01 01:11:57;;;;;;;30.05;21.60;;;2.30;99.90;;;;;;7379935;19;20085;-71
2023/12/01 01:14:27;;;;;;;29.30;21.75;;;2.30;99.90;;;;;;7378112;19;20026;-70
2023/12/01 01:16:57;;;;;;;32.83;21.83;;;2.40;99.90;;;;;;7377574;19;20010;-71
2023/12/01 01:19:30;;;;;;;30.00;21.73;;;2.40;99.90;;;;;;7378587;19;20373;-70
2023/12/01 01:22:00;;;;;;;30.58;22.15;;;2.40;99.90;;;;;;7386925;19;20006;-71
2023/12/01 01:24:30;;;;;;;28.70;21.20;;;2.40;99.90;;;;;;7383674;19;20022;-71
2023/12/01 01:27:00;;;;;;;28.35;20.67;;;2.30;99.90;;;;;;7377491;19;20023;-71
2023/12/01 01:29:30;;;;;;;29.27;21.13;;;2.30;99.90;;;;;;7378078;19;20026;-72
2023/12/01 01:32:00;;;;;;;29.48;20.20;;;2.30;99.90;;;;;;7378086;19;20017;-71
2023/12/01 01:34:33;;;;;;;32.45;22.13;;;2.30;99.90;;;;;;7376898;19;20014;-71
2023/12/01 01:37:03;;;;;;;30.42;21.35;;;2.30;99.90;;;;;;7377207;19;20086;-70
2023/12/01 01:39:33;;;;;;;33.45;22.30;;;2.30;99.90;;;;;;7377412;19;20003;-71
2023/12/01 01:42:05;;;;;;;32.88;21.70;;;2.30;99.90;;;;;;7379186;19;20030;-68
2023/12/01 01:44:35;;;;;;;31.20;22.52;;;2.30;99.90;;;;;;7377049;19;20010;-69
2023/12/01 01:47:06;;;;;;;32.13;23.23;;;2.30;99.90;;;;;;7377386;19;20014;-70
2023/12/01 01:49:39;;;;;;;31.83;22.27;;;2.30;99.90;;;;;;7376999;19;20031;-69
2023/12/01 01:52:10;;;;;;;34.42;24.45;;;2.30;99.90;;;;;;7377117;19;20010;-69
2023/12/01 01:54:42;;;;;;;33.10;24.00;;;2.30;99.90;;;;;;7376819;19;20083;-69
2023/12/01 01:57:12;;;;;;;34.78;22.33;;;2.30;99.90;;;;;;7376345;19;20022;-70
2023/12/01 01:59:42;;;;;;;34.78;24.25;;;2.20;99.90;;;;;;7377974;19;20022;-69
2023/12/01 02:02:12;;;;;;;32.28;23.95;;;2.10;99.90;;;;;;7376302;19;20050;-70
2023/12/01 02:04:45;;;;;;;32.42;23.45;;;2.20;99.90;;;;;;7376764;19;20018;-69
2023/12/01 02:07:27;;;;;;;31.08;22.13;;;2.10;99.90;;;;;;7376698;19;20518;-69
2023/12/01 02:09:57;;;;;;;34.78;22.85;;;2.10;99.90;;;;;;7378489;19;20014;-71
2023/12/01 02:12:27;;;;;;;31.60;22.35;;;2.10;99.90;;;;;;7373909;19;20491;-70
2023/12/01 02:14:57;;;;;;;28.23;21.58;;;2.00;99.90;;;;;;7377600;19;20015;-71
2023/12/01 02:17:27;;;;;;;28.67;22.67;;;2.00;99.90;;;;;;7375717;19;20015;-70
2023/12/01 02:20:00;;;;;;;32.72;22.35;;;2.00;99.90;;;;;;7377590;19;20071;-70
2023/12/01 02:22:33;;;;;;;31.35;22.27;;;2.10;99.90;;;;;;7373496;19;20010;-71
2023/12/01 02:25:03;;;;;;;29.45;22.27;;;2.00;99.90;;;;;;7375190;19;20046;-71
2023/12/01 02:27:33;;;;;;;33.15;22.85;;;2.00;99.90;;;;;;7375433;19;20028;-70
2023/12/01 02:30:03;;;;;;;34.50;23.67;;;2.00;99.90;;;;;;7376581;19;20014;-70
2023/12/01 02:32:33;;;;;;;33.08;24.13;;;2.00;99.90;;;;;;7376230;19;20022;-70
2023/12/01 02:35:03;;;;;;;35.15;24.77;;;1.90;99.90;;;;;;7375952;19;20003;-70
2023/12/01 02:37:35;;;;;;;35.63;23.17;;;2.00;99.90;;;;;;7376557;19;20017;-71
2023/12/01 02:40:14;;;;;;;36.10;24.77;;;2.00;99.90;;;;;;7375275;19;20010;-70
2023/12/01 02:42:50;;;;;;;35.90;25.00;;;2.10;99.90;;;;;;7375749;19;20026;-70
2023/12/01 02:45:21;;;;;;;;;;;2.10;99.90;;;;;;7374343;19;20357;-71
2023/12/01 02:47:51;;;;;;;33.78;22.77;;;2.10;99.90;;;;;;7374797;19;20254;-71
2023/12/01 02:50:22;;;;;;;36.28;24.63;;;2.00;99.90;;;;;;7374358;19;20043;-69
2023/12/01 02:52:54;;;;;;;35.25;25.08;;;2.00;99.90;;;;;;7375577;19;20006;-69
2023/12/01 02:55:24;;;;;;;34.22;23.75;;;2.00;99.90;;;;;;7372903;19;20102;-69
2023/12/01 02:57:55;;;;;;;34.60;24.95;;;2.00;99.90;;;;;;7376456;19;20007;-70
2023/12/01 03:00:27;;;;;;;32.25;23.83;;;1.90;99.90;;;;;;7375940;19;20030;-70
2023/12/01 03:02:58;;;;;;;35.42;23.92;;;1.90;99.90;;;;;;7375489;19;20011;-70
2023/12/01 03:05:28;;;;;;;35.85;22.75;;;1.80;99.90;;;;;;7373367;19;20045;-69
2023/12/01 03:08:00;;;;;;;36.20;25.20;;;1.70;99.90;;;;;;7375064;19;20021;-69
2023/12/01 03:10:30;;;;;;;33.90;25.17;;;1.70;99.90;;;;;;7374061;19;20006;-70
2023/12/01 03:13:00;;;;;;;36.17;26.48;;;1.70;99.90;;;;;;7375931;19;20098;-70
2023/12/01 03:15:31;;;;;;;40.42;26.33;;;1.70;99.90;;;;;;7372905;19;20041;-69
2023/12/01 03:18:01;;;;;;;37.30;25.83;;;1.60;99.90;;;;;;7374780;19;20010;-70
2023/12/01 03:20:31;;;;;;;31.83;23.90;;;1.50;99.90;;;;;;7373247;19;20089;-69
2023/12/01 03:23:04;;;;;;;35.80;24.95;;;1.50;99.90;;;;;;7369098;19;20014;-70
2023/12/01 03:25:35;;;;;;;34.10;21.85;;;1.50;99.90;;;;;;7378849;19;20007;-69
2023/12/01 03:28:05;;;;;;;32.67;22.65;;;1.50;99.90;;;;;;7382304;19;20081;-70
2023/12/01 03:30:36;;;;;;;33.53;22.55;;;1.40;99.90;;;;;;7381242;19;20013;-70
2023/12/01 03:33:06;;;;;;;39.15;25.65;;;1.40;99.90;;;;;;7381513;19;20010;-70
2023/12/01 03:35:36;;;;;;;37.53;25.17;;;1.40;99.90;;;;;;7379391;19;20014;-69
2023/12/01 03:38:08;;;;;;;37.65;24.98;;;1.40;99.90;;;;;;7381019;19;20014;-70
2023/12/01 03:40:39;;;;;;;36.53;24.65;;;1.30;99.90;;;;;;7387837;19;20470;-70
2023/12/01 03:43:12;;;;;;;38.63;25.73;;;1.30;99.90;;;;;;7382387;19;20014;-70
2023/12/01 03:45:42;;;;;;;38.40;25.70;;;1.30;99.90;;;;;;7378519;19;20011;-69
2023/12/01 03:48:12;;;;;;;40.67;26.08;;;1.30;99.90;;;;;;7380658;19;20393;-69
2023/12/01 03:50:42;;;;;;;43.67;27.67;;;1.20;99.90;;;;;;7380653;19;20022;-70
2023/12/01 03:53:15;;;;;;;45.53;25.40;;;1.20;99.90;;;;;;7379985;19;20018;-70
2023/12/01 03:55:45;;;;;;;37.47;24.83;;;1.10;99.90;;;;;;7378701;19;20014;-69
2023/12/01 03:58:16;;;;;;;36.13;24.30;;;1.10;99.90;;;;;;7380275;19;20467;-70
2023/12/01 04:00:46;;;;;;;35.40;24.38;;;1.00;99.90;;;;;;7380987;19;20042;-70
2023/12/01 04:03:17;;;;;;;35.17;23.60;;;1.00;99.90;;;;;;7381138;19;20011;-70
2023/12/01 04:05:47;;;;;;;35.42;23.85;;;0.90;99.90;;;;;;7378556;19;20396;-70
2023/12/01 04:08:19;;;;;;;32.92;23.52;;;0.90;99.90;;;;;;7380907;19;20003;-70
2023/12/01 04:10:50;;;;;;;36.72;24.38;;;0.90;99.90;;;;;;7380360;19;20019;-70
2023/12/01 04:13:20;;;;;;;37.13;24.73;;;0.90;99.90;;;;;;7379830;19;20007;-70
2023/12/01 04:15:53;;;;;;;36.40;23.60;;;0.90;99.90;;;;;;7378337;19;20043;-70
2023/12/01 04:18:23;;;;;;;38.28;24.50;;;0.90;99.90;;;;;;7380117;19;20006;-70
2023/12/01 04:20:52;;;;;;;33.67;22.90;;;0.90;99.90;;;;;;7378596;19;20019;-71
2023/12/01 04:23:25;;;;;;;35.13;24.15;;;0.90;99.90;;;;;;7380842;19;20506;-70
2023/12/01 04:25:55;;;;;;;31.67;21.85;;;0.80;99.90;;;;;;7377549;19;22268;-70
2023/12/01 04:28:25;;;;;;;36.22;24.17;;;0.90;99.90;;;;;;7381391;19;20033;-70
2023/12/01 04:30:55;;;;;;;41.30;24.63;;;0.80;99.90;;;;;;7380484;19;20449;-70
2023/12/01 04:33:36;;;;;;;33.63;21.63;;;0.80;99.90;;;;;;7374809;19;20078;-70
2023/12/01 04:36:07;;;;;;;34.75;22.45;;;0.80;99.90;;;;;;7375997;19;20006;-70
2023/12/01 04:38:40;;;;;;;36.92;24.65;;;0.80;99.90;;;;;;7377809;19;20014;-70
2023/12/01 04:41:10;;;;;;;36.53;24.67;;;0.80;99.90;;;;;;7378271;19;20078;-70
2023/12/01 04:43:42;;;;;;;39.47;24.50;;;0.80;99.90;;;;;;7379002;19;20622;-69
2023/12/01 04:46:12;;;;;;;34.35;22.67;;;0.80;99.90;;;;;;7377572;19;20007;-70
2023/12/01 04:48:42;;;;;;;36.38;23.33;;;0.80;99.90;;;;;;7378934;19;20031;-70
2023/12/01 04:51:12;;;;;;;37.00;23.98;;;0.80;99.90;;;;;;7378491;19;20756;-69
2023/12/01 04:53:45;;;;;;;38.72;24.88;;;0.80;99.90;;;;;;7377042;19;20070;-69
2023/12/01 04:56:15;;;;;;;42.55;26.45;;;0.80;99.90;;;;;;7376334;19;20018;-69
2023/12/01 04:58:45;;;;;;;43.20;26.27;;;0.80;99.90;;;;;;7377848;19;20036;-70
2023/12/01 05:01:15;;;;;;;40.67;26.58;;;0.80;99.90;;;;;;7376592;19;20037;-70
2023/12/01 05:03:45;;;;;;;41.78;26.50;;;0.80;99.90;;;;;;7378105;19;20017;-69
2023/12/01 05:06:15;;;;;;;43.28;26.30;;;0.70;99.90;;;;;;7376694;19;20011;-70
2023/12/01 05:08:48;;;;;;;42.90;27.08;;;0.70;99.90;;;;;;7378183;19;20014;-70
2023/12/01 05:11:18;;;;;;;37.47;24.77;;;0.70;99.90;;;;;;7377679;19;20017;-70
2023/12/01 05:13:48;;;;;;;42.10;27.20;;;0.80;99.90;;;;;;7377412;19;20018;-70
2023/12/01 05:16:20;;;;;;;40.90;26.10;;;0.80;99.90;;;;;;7376360;19;20019;-70
2023/12/01 05:18:50;;;;;;;36.70;24.98;;;0.70;99.90;;;;;;7378094;19;20003;-70
2023/12/01 05:21:20;;;;;;;38.28;25.20;;;0.70;99.90;;;;;;7376587;19;20028;-70
2023/12/01 05:23:52;;;;;;;42.78;26.55;;;0.70;99.90;;;;;;7376455;19;20436;-69
2023/12/01 05:26:22;;;;;;;41.03;25.88;;;0.80;99.90;;;;;;7376535;19;20085;-70
2023/12/01 05:28:52;;;;;;;42.80;27.70;;;0.80;99.90;;;;;;7377253;19;20013;-70
2023/12/01 05:31:23;;;;;;;41.20;25.33;;;0.80;99.90;;;;;;7377803;19;20007;-69
2023/12/01 05:33:53;;;;;;;37.58;25.42;;;0.80;99.90;;;;;;7376825;19;20134;-70
2023/12/01 05:36:35;;;;;;;36.00;23.98;;;0.90;99.90;;;;;;7373594;19;20041;-69
2023/12/01 05:39:12;;;;;;;37.53;25.15;;;0.80;99.90;;;;;;7377011;19;20014;-69
2023/12/01 05:41:43;;;;;;;38.35;24.15;;;0.80;99.90;;;;;;7371427;19;20557;-70
2023/12/01 05:44:13;;;;;;;37.90;24.40;;;0.70;99.90;;;;;;7374087;19;20019;-70
2023/12/01 05:46:43;;;;;;;37.03;25.25;;;0.80;99.90;;;;;;7376204;19;20018;-69
2023/12/01 05:49:14;;;;;;;39.28;24.70;;;0.80;99.90;;;;;;7377030;19;20010;-70
2023/12/01 05:51:44;;;;;;;35.80;23.83;;;0.80;99.90;;;;;;7376532;19;20011;-68
2023/12/01 05:54:17;;;;;;;40.22;25.27;;;0.80;99.90;;;;;;7375981;19;20101;-70
2023/12/01 05:56:47;;;;;;;40.35;27.25;;;0.90;99.90;;;;;;7376192;19;20520;-69
2023/12/01 05:59:17;;;;;;;37.67;25.00;;;0.90;99.90;;;;;;7382778;19;20359;-70
2023/12/01 06:01:47;;;;;;;36.05;24.52;;;0.90;99.90;;;;;;7380850;19;20412;-70
2023/12/01 06:04:14;;;;;;;37.80;25.70;;;0.90;99.90;;;;;;7376124;19;20528;-70
2023/12/01 06:06:44;;;;;;;37.03;23.75;;;0.80;99.90;;;;;;7376426;19;20003;-70
2023/12/01 06:09:18;;;;;;;36.10;24.55;;;0.80;99.90;;;;;;7375967;19;20491;-70
2023/12/01 06:11:48;;;;;;;39.25;25.63;;;0.80;99.90;;;;;;7375824;19;20340;-70
2023/12/01 06:14:17;;;;;;;37.97;24.80;;;0.80;99.90;;;;;;7377617;19;20093;-70
2023/12/01 06:16:47;;;;;;;41.03;25.70;;;0.80;99.90;;;;;;7374589;19;20027;-70
2023/12/01 06:19:18;;;;;;;39.80;25.52;;;0.80;99.90;;;;;;7376845;19;20039;-70
2023/12/01 06:21:48;;;;;;;42.03;26.75;;;0.80;99.90;;;;;;7378501;19;20047;-70
2023/12/01 06:24:21;;;;;;;41.67;26.70;;;0.80;99.90;;;;;;7375439;19;20470;-70
2023/12/01 06:26:52;;;;;;;47.60;28.45;;;0.80;99.90;;;;;;7374265;19;20082;-70
2023/12/01 06:29:22;;;;;;;45.13;26.55;;;0.80;99.90;;;;;;7373572;19;20388;-68
2023/12/01 06:31:52;;;;;;;41.58;26.35;;;0.80;99.90;;;;;;7376115;19;20018;-70
2023/12/01 06:34:22;;;;;;;44.78;27.42;;;0.80;99.90;;;;;;7374809;19;20072;-70
2023/12/01 06:36:58;;;;;;;41.67;27.05;;;0.80;99.90;;;;;;7375375;19;20197;-69
2023/12/01 06:39:32;;;;;;;40.63;26.15;;;0.80;99.90;;;;;;7376041;19;20010;-70
2023/12/01 06:42:02;;;;;;;43.05;25.63;;;0.70;99.90;;;;;;7375855;19;20013;-69
2023/12/01 06:44:34;;;;;;;43.08;26.35;;;0.70;99.90;;;;;;7376200;19;20901;-70
2023/12/01 06:47:06;;;;;;;;;;;0.80;99.90;;;;;;7376088;19;20015;-69
2023/12/01 06:49:36;;;;;;;40.35;24.27;;;0.70;99.90;;;;;;7375375;19;19923;-69
2023/12/01 06:52:08;;;;;;;43.72;25.58;;;0.70;99.90;;;;;;7374319;19;20018;-69
2023/12/01 06:54:40;;;;;;;44.03;26.70;;;0.80;99.90;;;;;;7374786;19;20014;-69
2023/12/01 06:57:10;;;;;;;42.13;26.67;;;0.70;99.90;;;;;;7373125;19;20035;-70
2023/12/01 06:59:40;;;;;;;47.42;28.75;;;0.70;99.90;;;;;;7379756;19;20003;-69
2023/12/01 07:02:10;;;;;;;44.17;26.08;;;0.70;99.90;;;;;;7382648;19;20508;-69
2023/12/01 07:04:40;;;;;;;43.90;26.58;;;0.70;99.90;;;;;;7382938;19;20336;-69
2023/12/01 07:07:12;;;;;;;46.25;26.77;;;0.70;99.90;;;;;;7382747;19;20020;-69
2023/12/01 07:09:47;;;;;;;46.28;26.42;;;0.70;99.90;;;;;;7380203;19;20037;-69
2023/12/01 07:12:28;;;;;;;44.85;26.90;;;0.60;99.90;;;;;;6871333;19;2003997;-69
2023/12/01 07:14:58;;;;;;;49.72;28.23;;;0.60;99.90;;;;;;7382537;19;20003;-70
2023/12/01 07:17:28;;;;;;;46.53;29.65;;;0.60;99.90;;;;;;7380305;19;20011;-69
2023/12/01 07:19:59;;;;;;;47.33;27.88;;;0.60;99.90;;;;;;7380440;19;20058;-69
2023/12/01 07:22:29;;;;;;;46.35;27.10;;;0.60;99.90;;;;;;7381772;19;20502;-68
2023/12/01 07:25:02;;;;;;;46.00;30.10;;;0.60;99.90;;;;;;7381747;19;20007;-69
2023/12/01 07:27:33;;;;;;;48.03;26.88;;;0.60;99.90;;;;;;7381135;19;20014;-69
2023/12/01 07:30:02;;;;;;;44.60;28.13;;;0.70;99.90;;;;;;7381527;19;20003;-68
2023/12/01 07:32:33;;;;;;;46.15;27.40;;;0.70;99.90;;;;;;7380251;19;20013;-68
2023/12/01 07:35:03;;;;;;;46.50;25.77;;;0.70;99.90;;;;;;7379537;19;20002;-68
2023/12/01 07:37:33;;;;;;;44.58;27.30;;;0.60;99.90;;;;;;7380411;19;20482;-69
2023/12/01 07:40:06;;;;;;;51.92;29.20;;;0.70;99.90;;;;;;7380701;19;20002;-69
2023/12/01 07:42:37;;;;;;;41.25;25.48;;;0.70;99.90;;;;;;7380241;19;20344;-70
2023/12/01 07:45:09;;;;;;;41.83;27.88;;;0.70;99.90;;;;;;7380432;19;20025;-69
2023/12/01 07:47:40;;;;;;;47.53;28.38;;;0.70;99.90;;;;;;7379760;19;20081;-69
2023/12/01 07:50:10;;;;;;;42.10;26.48;;;0.70;99.90;;;;;;7381674;19;20017;-68
2023/12/01 07:52:40;;;;;;;44.65;26.00;;;0.70;99.90;;;;;;7381557;19;20014;-69
2023/12/01 07:55:15;;;;;;;39.85;25.23;;;0.70;99.90;;;;;;7379079;19;20007;-69
2023/12/01 07:57:46;;;;;;;44.65;25.45;;;0.70;99.90;;;;;;7377503;19;20097;-69
2023/12/01 08:00:17;;;;;;;43.42;26.10;;;0.60;99.90;;;;;;7379940;19;20036;-69
2023/12/01 08:02:51;;;;;;;44.65;26.00;;;0.70;99.90;;;;;;7378174;19;20035;-69
2023/12/01 08:05:24;;;;;;;45.88;27.90;;;0.70;99.90;;;;;;7379068;19;20030;-69
2023/12/01 08:07:56;;;;;;;44.13;25.35;;;0.70;99.90;;;;;;7378712;19;20057;-68
2023/12/01 08:10:30;;;;;;;43.10;26.45;;;0.70;99.90;;;;;;7380649;19;20174;-69
2023/12/01 08:13:01;;;;;;;40.67;24.85;;;0.70;99.90;;;;;;7379842;19;20358;-69
2023/12/01 08:15:32;;;;;;;42.75;25.75;;;0.80;99.90;;;;;;7378706;19;20018;-68
2023/12/01 08:18:04;;;;;;;42.35;27.52;;;0.80;99.90;;;;;;7381719;19;20090;-68
2023/12/01 08:20:34;;;;;;;48.33;27.52;;;0.70;99.90;;;;;;7380256;19;20006;-68
2023/12/01 08:23:04;;;;;;;44.85;27.20;;;0.70;99.90;;;;;;7379418;19;20108;-69
2023/12/01 08:25:37;;;;;;;43.28;26.33;;;0.70;99.90;;;;;;7378057;19;20022;-69
2023/12/01 08:28:07;;;;;;;45.78;27.23;;;0.70;99.90;;;;;;7380289;19;20010;-70
2023/12/01 08:30:37;;;;;;;47.63;26.77;;;0.70;99.90;;;;;;7378693;19;20007;-69
2023/12/01 08:33:17;;;;;;;43.72;25.33;;;0.70;99.90;;;;;;7380565;19;20006;-70
2023/12/01 08:35:47;;;;;;;45.15;25.27;;;0.80;99.90;;;;;;7377502;19;20070;-70
2023/12/01 08:38:17;;;;;;;41.55;25.60;;;0.80;99.90;;;;;;7379975;19;20024;-70
2023/12/01 08:40:51;;;;;;;47.17;27.77;;;0.80;99.90;;;;;;7377067;19;20010;-70
2023/12/01 08:43:24;;;;;;;47.75;24.77;;;0.80;99.90;;;;;;7375745;19;20006;-71
2023/12/01 08:45:54;;;;;;;40.65;25.60;;;0.90;99.90;;;;;;7377960;19;20295;-71
2023/12/01 08:48:24;;;;;;;44.97;25.95;;;0.90;99.90;;;;;;7378126;19;20014;-72
2023/12/01 08:50:54;;;;;;;41.92;24.08;;;0.90;99.90;;;;;;7378446;19;20010;-69
2023/12/01 08:53:24;;;;;;;42.58;26.13;;;0.90;99.90;;;;;;7378675;19;20014;-69
2023/12/01 08:55:58;;;;;;;44.50;26.60;;;0.90;99.90;;;;;;7377429;19;20011;-69
2023/12/01 08:58:28;;;;;;;40.55;24.95;;;1.00;99.90;;;;;;7378931;19;20031;-70
2023/12/01 09:00:58;;;;;;;41.03;24.45;;;0.90;99.90;;;;;;7377387;19;20499;-69
2023/12/01 09:03:29;;;;;;;48.35;25.13;;;0.80;99.90;;;;;;7377659;19;20018;-69
2023/12/01 09:05:59;;;;;;;45.95;27.20;;;0.80;99.90;;;;;;7377305;19;20027;-70
2023/12/01 09:08:29;;;;;;;45.47;26.90;;;0.80;99.90;;;;;;7378493;19;20026;-70
2023/12/01 09:11:02;;;;;;;49.83;28.15;;;0.90;99.90;;;;;;7377164;19;20027;-69
2023/12/01 09:13:34;;;;;;;46.08;27.73;;;1.00;99.90;;;;;;7378858;19;20758;-70
2023/12/01 09:16:05;;;;;;;48.70;29.13;;;0.90;99.90;;;;;;7378159;19;20011;-71
2023/12/01 09:18:35;;;;;;;50.70;28.42;;;0.90;99.90;;;;;;7377592;19;20007;-70
2023/12/01 09:21:06;;;;;;;49.63;28.85;;;1.00;99.90;;;;;;7377457;19;20027;-70
2023/12/01 09:23:39;;;;;;;47.85;30.00;;;0.90;99.90;;;;;;7377456;19;20648;-70
2023/12/01 09:26:19;;;;;;;53.43;31.47;;;1.00;99.90;;;;;;7376586;19;20009;-71
2023/12/01 09:28:51;;;;;;;46.75;28.23;;;1.00;99.90;;;;;;7376341;19;20651;-70
2023/12/01 09:31:21;;;;;;;51.58;31.23;;;0.90;99.90;;;;;;7380198;19;20019;-70
2023/12/01 09:33:51;;;;;;;48.92;27.60;;;0.90;99.90;;;;;;7373840;19;20016;-71
2023/12/01 09:36:22;;;;;;;44.10;25.70;;;1.00;99.90;;;;;;7376307;19;20017;-69
2023/12/01 09:38:52;;;;;;;46.40;27.20;;;1.00;99.90;;;;;;7378924;19;20443;-71
2023/12/01 09:41:24;;;;;;;46.13;28.85;;;1.00;99.90;;;;;;7374553;19;20011;-72
2023/12/01 09:43:55;;;;;;;47.97;28.77;;;0.90;99.90;;;;;;7377318;19;20466;-71
2023/12/01 09:46:39;;;;;;;48.28;30.42;;;1.00;99.90;;;;;;7376693;19;20043;-70
2023/12/01 09:49:09;;;;;;;47.38;27.08;;;1.10;99.90;;;;;;7377391;19;20018;-71
2023/12/01 09:51:39;;;;;;;45.13;27.05;;;1.00;99.90;;;;;;7378388;19;20475;-70
2023/12/01 09:54:09;;;;;;;57.28;28.23;;;0.90;99.90;;;;;;7376024;19;20499;-69
2023/12/01 09:56:42;;;;;;;46.15;27.85;;;0.90;99.90;;;;;;7376365;19;20077;-69
2023/12/01 09:59:15;;;;;;;49.85;28.95;;;1.00;99.90;;;;;;7376216;19;20055;-68
2023/12/01 10:01:47;;;;;;;50.85;28.17;;;0.90;99.90;;;;;;7377157;19;20011;-69
2023/12/01 10:04:18;;;;;;;52.00;28.55;;;0.90;99.90;;;;;;7375523;19;20010;-69
2023/12/01 10:06:48;;;;;;;57.53;28.73;;;1.00;99.90;;;;;;7373427;19;20478;-69
2023/12/01 10:09:32;;;;;;;59.25;31.40;;;1.00;99.90;;;;;;7375892;19;20018;-69
2023/12/01 10:12:13;;;;;;;54.17;30.20;;;1.10;99.90;;;;;;6864601;19;2003939;-70
2023/12/01 10:14:45;;;;;;;57.03;30.23;;;0.90;99.90;;;;;;7375630;19;20026;-69
2023/12/01 10:17:17;;;;;;;52.65;28.58;;;0.90;99.90;;;;;;7375817;19;20088;-70
2023/12/01 10:19:49;;;;;;;53.90;30.42;;;1.00;99.90;;;;;;7376222;19;20007;-70
2023/12/01 10:22:19;;;;;;;55.45;31.08;;;1.00;99.90;;;;;;7373381;19;20090;-69
2023/12/01 10:25:03;;;;;;;57.40;30.77;;;1.00;99.90;;;;;;7374249;19;20090;-70
2023/12/01 10:27:36;;;;;;;64.93;35.33;;;1.10;99.90;;;;;;6865004;19;2004025;-70
2023/12/01 10:30:13;;;;;;;62.70;33.17;;;1.10;99.90;;;;;;7377299;19;20017;-70
2023/12/01 10:32:44;;;;;;;62.10;32.58;;;1.10;99.90;;;;;;7375772;19;20621;-68
2023/12/01 10:35:14;;;;;;;61.58;33.30;;;1.10;99.90;;;;;;7380659;19;20007;-69
2023/12/01 10:37:45;;;;;;;62.63;33.15;;;1.10;99.90;;;;;;7396660;19;20082;-69
2023/12/01 10:40:16;;;;;;;66.47;35.05;;;1.10;99.90;;;;;;7395397;19;20356;-69
2023/12/01 10:42:52;;;;;;;65.30;35.33;;;1.10;99.90;;;;;;7382637;19;20033;-69
2023/12/01 10:45:23;;;;;;;68.75;35.40;;;1.10;99.90;;;;;;7382872;19;20010;-68
2023/12/01 10:47:55;;;;;;;63.92;32.92;;;1.00;99.90;;;;;;7383241;19;20021;-69
2023/12/01 10:50:25;;;;;;;67.65;33.50;;;1.00;99.90;;;;;;7376939;19;20014;-70
2023/12/01 10:52:58;;;;;;;61.00;33.53;;;1.10;99.90;;;;;;7381779;19;20400;-69
2023/12/01 10:55:28;;;;;;;66.10;33.90;;;1.00;99.90;;;;;;7379399;19;20041;-70
2023/12/01 10:58:03;;;;;;;65.53;34.35;;;1.10;99.90;;;;;;7381751;19;20006;-70
2023/12/01 11:00:33;;;;;;;61.45;33.00;;;1.10;99.90;;;;;;7381498;19;20018;-70
2023/12/01 11:03:05;;;;;;;68.28;35.78;;;1.20;99.90;;;;;;7381471;19;20014;-68
2023/12/01 11:05:37;;;;;;;65.50;35.00;;;1.10;99.90;;;;;;7379644;19;20106;-69
2023/12/01 11:08:23;;;;;;;65.57;35.15;;;1.00;99.90;;;;;;7382714;19;20019;-71
2023/12/01 11:11:01;;;;;;;76.03;35.90;;;1.10;99.90;;;;;;7378717;19;20014;-70
2023/12/01 11:13:49;;;;;;;61.60;34.30;;;1.10;99.90;;;;;;7377094;19;20027;-69
2023/12/01 11:16:20;;;;;;;59.95;31.42;;;1.20;99.90;;;;;;7381947;19;20528;-69
2023/12/01 11:18:51;;;;;;;64.55;33.67;;;1.10;99.90;;;;;;7381767;19;20010;-68
2023/12/01 11:21:21;;;;;;;71.15;36.55;;;1.10;99.90;;;;;;7382181;19;20092;-70
2023/12/01 11:23:51;;;;;;;70.32;35.20;;;1.10;99.90;;;;;;7382997;19;20002;-70
2023/12/01 11:26:26;;;;;;;75.75;36.90;;;1.10;99.90;;;;;;7380606;19;20042;-69
2023/12/01 11:29:10;;;;;;;;;;;1.10;99.90;;;;;;7382102;19;20021;-69
2023/12/01 11:31:52;;;;;;;64.40;32.22;;;1.00;99.90;;;;;;6865451;19;2004146;-69
2023/12/01 11:34:24;;;;;;;69.32;33.28;;;1.10;99.90;;;;;;7380892;19;20007;-68
2023/12/01 11:36:56;;;;;;;61.72;32.83;;;1.10;99.90;;;;;;7381582;19;20444;-68
2023/12/01 11:39:29;;;;;;;67.28;33.90;;;1.10;99.90;;;;;;7380453;19;20021;-68
2023/12/01 11:42:17;;;;;;;68.22;34.47;;;1.10;99.90;;;;;;7378492;19;20010;-69
2023/12/01 11:44:53;;;;;;;62.72;33.10;;;1.20;99.90;;;;;;7378726;19;20100;-69
2023/12/01 11:47:23;;;;;;;70.97;36.10;;;1.10;99.90;;;;;;7376481;19;20043;-69
2023/12/01 11:49:53;;;;;;;66.03;35.63;;;1.10;99.90;;;;;;7382659;19;20006;-69
2023/12/01 11:52:24;;;;;;;65.10;34.63;;;1.10;99.90;;;;;;7382218;19;20355;-69
2023/12/01 11:54:55;;;;;;;69.75;34.83;;;1.10;99.90;;;;;;7381243;19;20011;-69
2023/12/01 11:57:25;;;;;;;73.47;37.10;;;1.00;99.90;;;;;;7382127;19;20010;-70
2023/12/01 12:00:00;;;;;;;71.82;36.60;;;1.00;99.90;;;;;;7380376;19;20029;-70
2023/12/01 12:02:39;;;;;;;81.60;37.40;;;1.00;99.90;;;;;;6869098;19;2003996;-70
2023/12/01 12:05:10;;;;;;;73.10;36.42;;;1.10;99.90;;;;;;7378782;19;20019;-70
2023/12/01 12:07:41;;;;;;;75.10;37.25;;;1.10;99.90;;;;;;7380770;19;20054;-70
2023/12/01 12:10:17;;;;;;;77.90;38.63;;;1.10;99.90;;;;;;7379223;19;20453;-70
2023/12/01 12:12:51;;;;;;;74.47;37.00;;;1.10;99.90;;;;;;7379580;19;20361;-69
2023/12/01 12:15:24;;;;;;;71.55;35.13;;;1.20;99.90;;;;;;7378491;19;20141;-69
2023/12/01 12:17:54;;;;;;;71.18;36.75;;;1.20;99.90;;;;;;7381762;19;20393;-68
2023/12/01 12:20:25;;;;;;;74.13;36.47;;;1.10;99.90;;;;;;7379665;19;20022;-70
2023/12/01 12:22:56;;;;;;;72.03;35.97;;;1.20;99.90;;;;;;7379294;19;20046;-68
2023/12/01 12:25:35;;;;;;;69.78;35.58;;;1.10;99.90;;;;;;7379021;19;20003;-68
2023/12/01 12:28:12;;;;;;;70.47;35.53;;;1.10;99.90;;;;;;7377162;19;20014;-68
2023/12/01 12:30:45;;;;;;;62.75;33.63;;;1.20;99.90;;;;;;7380680;19;20018;-68
2023/12/01 12:33:15;;;;;;;68.18;35.10;;;1.20;99.90;;;;;;7379343;19;20015;-69
2023/12/01 12:35:45;;;;;;;66.13;33.85;;;1.20;99.90;;;;;;7377847;19;20006;-70
2023/12/01 12:38:16;;;;;;;62.58;34.25;;;1.10;99.90;;;;;;7379352;19;20098;-69
2023/12/01 12:40:46;;;;;;;69.93;36.75;;;1.10;99.90;;;;;;7379245;19;20355;-70
2023/12/01 12:43:20;;;;;;;60.22;31.40;;;1.10;99.90;;;;;;7380593;19;20017;-69
2023/12/01 12:45:56;;;;;;;66.25;33.15;;;1.10;99.90;;;;;;7378540;19;20010;-70
2023/12/01 12:48:27;;;;;;;61.08;32.97;;;1.10;99.90;;;;;;7380401;19;20006;-71
2023/12/01 12:50:58;;;;;;;69.88;34.97;;;1.10;99.90;;;;;;7379239;19;20018;-69
2023/12/01 12:53:30;;;;;;;61.28;33.05;;;1.10;99.90;;;;;;7377792;19;20459;-70
2023/12/01 12:56:12;;;;;;;68.60;36.38;;;1.00;99.90;;;;;;7374623;19;20036;-70
2023/12/01 12:58:43;;;;;;;60.63;33.30;;;1.10;99.90;;;;;;6884689;19;2004056;-68
2023/12/01 13:01:16;;;;;;;62.28;32.70;;;1.00;99.90;;;;;;7384176;19;20479;-69